^^
Grace C. Lehan Memorial Weather Station Historical Data
Daily Summary for October 06, 2022 Units:  English    Metric   Both
Daily Weekly Monthly Yearly
  High: Low: Average:
Temperature: 59.8 °F 57.3 °F 59 °F
Dew Point: 58.7 °F 56.1 °F 57.8 °F
Humidity: 96% 95% 96%
Wind Speed: 3.9mph 0mph 0.3mph
Wind Gust: 17mph - -
Wind- - West
Pressure: 29.87 in 29.86 in -
Precipitation: 0.00 in    
 
 
Tabular Data for October 06, 2022
Time Temperature Dew Point Pressure Wind Wind Speed Wind Gust Humidity Rainfall Rate (Hourly) solar
00:04 59.8 °F 58.7 °F 29.87 in NW 1.7 mph 6 mph 96% 0.07 in 0 W/m2
00:09 59.8 °F 58.6 °F 29.87 in NNW 1.5 mph 9 mph 96% 0.07 in 0 W/m2
00:14 59.7 °F 58.6 °F 29.87 in NW 3.9 mph 13 mph 96% 0.07 in 0 W/m2
00:19 59.8 °F 58.6 °F 29.87 in NNE 0.8 mph 13 mph 96% 0.07 in 0 W/m2
00:24 59.8 °F 58.7 °F 29.87 in North 1.5 mph 13 mph 96% 0.07 in 0 W/m2
00:29 59.8 °F 58.7 °F 29.87 in NW 1.9 mph 17 mph 96% 0.07 in 0 W/m2
00:34 59.8 °F 58.7 °F 29.87 in NNE 0.2 mph 17 mph 96% 0.07 in 0 W/m2
00:39 59.8 °F 58.7 °F 29.87 in NNW 0.1 mph 3 mph 96% 0.07 in 0 W/m2
00:44 59.8 °F 58.7 °F 29.87 in NNW 0.6 mph 5 mph 96% 0.07 in 0 W/m2
00:49 59.8 °F 58.7 °F 29.87 in NW 0.1 mph 5 mph 96% 0.07 in 0 W/m2
00:54 59.8 °F 58.7 °F 29.87 in NW 0.7 mph 6 mph 96% 0.07 in 0 W/m2
00:59 59.8 °F 58.7 °F 29.87 in Calm   6 mph 96% 0.07 in 0 W/m2
01:04 59.8 °F 58.7 °F 29.87 in NNW 0.5 mph 7 mph 96% 0.07 in 0 W/m2
01:09 59.8 °F 58.7 °F 29.87 in NW 0.9 mph 10 mph 96% 0.00 in 0 W/m2
01:14 59.8 °F 58.7 °F 29.87 in WNW 0.1 mph 10 mph 96% 0.00 in 0 W/m2
01:19 59.8 °F 58.7 °F 29.87 in Calm   10 mph 96% 0.00 in 0 W/m2
01:24 59.8 °F 58.7 °F 29.87 in Calm   10 mph 96% 0.00 in 0 W/m2
01:29 59.8 °F 58.7 °F 29.87 in Calm   10 mph 96% 0.00 in 0 W/m2
01:34 59.8 °F 58.7 °F 29.87 in NW 0.1 mph 10 mph 96% 0.00 in 0 W/m2
01:39 59.8 °F 58.7 °F 29.87 in NW 0.1 mph 3 mph 96% 0.00 in 0 W/m2
01:44 59.8 °F 58.7 °F 29.87 in NNW 0.2 mph 3 mph 96% 0.00 in 0 W/m2
01:49 59.8 °F 58.6 °F 29.87 in NNE 0.1 mph 3 mph 96% 0.00 in 0 W/m2
01:54 59.7 °F 58.6 °F 29.87 in Calm   3 mph 96% 0.00 in 0 W/m2
01:59 59.7 °F 58.6 °F 29.87 in Calm   3 mph 96% 0.00 in 0 W/m2
02:04 59.7 °F 58.5 °F 29.87 in Calm   3 mph 96% 0.00 in 0 W/m2
02:09 59.6 °F 58.5 °F 29.87 in Calm     96% 0.00 in 0 W/m2
02:14 59.5 °F 58.4 °F 29.87 in Calm     96% 0.00 in 0 W/m2
02:19 59.4 °F 58.3 °F 29.87 in Calm     96% 0.00 in 0 W/m2
02:24 59.3 °F 58.2 °F 29.87 in Calm     96% 0.00 in 0 W/m2
02:29 59.2 °F 58.1 °F 29.87 in Calm     96% 0.00 in 0 W/m2
02:34 59.1 °F 57.9 °F 29.87 in Calm     96% 0.00 in 0 W/m2
02:39 58.9 °F 57.7 °F 29.87 in Calm     95.6% 0.00 in 0 W/m2
02:44 58.8 °F 57.4 °F 29.87 in Calm     95% 0.00 in 0 W/m2
02:49 58.7 °F 57.3 °F 29.87 in Calm     95.2% 0.00 in 0 W/m2
02:54 58.6 °F 57.4 °F 29.87 in Calm     96% 0.00 in 0 W/m2
02:59 58.4 °F 57.3 °F 29.87 in Calm     95.8% 0.00 in 0 W/m2
03:04 58.3 °F 56.9 °F 29.87 in Calm     95% 0.00 in 0 W/m2
03:09 58.2 °F 56.8 °F 29.87 in Calm     95% 0.00 in 0 W/m2
03:14 58.1 °F 56.8 °F 29.87 in Calm     95.7% 0.00 in 0 W/m2
03:19 58 °F 56.9 °F 29.87 in Calm     96% 0.00 in 0 W/m2
03:24 57.9 °F 56.7 °F 29.87 in Calm     96% 0.00 in 0 W/m2
03:29 57.7 °F 56.4 °F 29.86 in Calm     95.3% 0.00 in 0 W/m2
03:34 57.5 °F 56.1 °F 29.87 in Calm     95% 0.00 in 0 W/m2
03:39 57.5 °F 56.1 °F 29.87 in Calm     95.1% 0.00 in 0 W/m2
03:44 57.4 °F 56.3 °F 29.86 in Calm     96% 0.00 in 0 W/m2
03:49 57.5 °F 56.4 °F 29.86 in Calm     96% 0.00 in 0 W/m2
03:54 57.5 °F 56.4 °F 29.87 in Calm     96% 0.00 in 0 W/m2
03:59 57.5 °F 56.4 °F 29.87 in Calm     96% 0.00 in 0 W/m2
04:04 57.5 °F 56.4 °F 29.87 in Calm     96% 0.00 in 0 W/m2
04:09 57.5 °F 56.3 °F 29.87 in Calm     96% 0.00 in 0 W/m2
04:13 57.3 °F 56.2 °F 29.87 in Calm     96% 0.00 in 0 W/m2
Hartford County Weather
Compliments of Weather Underground - 2 mb